Lancaster Airport Lancaster US
ICAO: KLNS
IATA: LNS
Category: Medium
Scheduled Services: Yes

Elevation: 403 ft
TransAlt. 18000 ft.

Airport Communications:
HARRISBURG APP/DEP:126.45
ATIS:125.675
CTAF:120.9
GND:121.8
WILLIAMSPORT RDO:117.3
TWR:120.9
UNICOM:122.95

KLNS Zoom In..

Runways:

(A) RW 08 length 6933 ft width 150 ft
ILS 108.70 / hdg 77

(B) RW 13 length 4102 ft width 100 ft
---- / hdg 128

(C) RW 26 length 6933 ft width 150 ft
---- / hdg 257

(D) RW 31 length 4102 ft width 100 ft
---- / hdg 308

Location; KLNS
Day. 15 / Time. 21.53 Zulu
* Altimeter: 29.98
* Temperature: 28° c. 82.4°f.
* Wind from: 270° Speed 04 kn.
Dewpoint: 21° c.
Visibility: 10 Statute Miles.
Clouds: Clear (automated report).

KLNS 152153Z 27004KT 10SM CLR 28/21 A2998 RMK AO2 SLP148 T02830211


Wind From 270°
Speed 04 kn.

 
 
jpsmedia.com for Web Design worldairports.se 2018   terms of use